createdAt,value
2018-12-09T00:01:16.150Z,19.379999999999995
2018-12-09T00:04:38.320Z,19.310000000000002
2018-12-09T00:08:00.403Z,19.349999999999994
2018-12-09T00:11:22.596Z,19.36
2018-12-09T00:14:44.833Z,19.28
2018-12-09T00:18:07.059Z,19.310000000000002
2018-12-09T00:21:29.277Z,19.28
2018-12-09T00:24:51.284Z,19.299999999999997
2018-12-09T00:28:13.487Z,19.22
2018-12-09T00:31:35.641Z,19.299999999999997
2018-12-09T00:34:57.889Z,19.28
2018-12-09T00:38:20.041Z,19.28
2018-12-09T00:41:42.185Z,19.22
2018-12-09T00:45:04.461Z,19.269999999999996
2018-12-09T00:48:26.664Z,19.209999999999994
2018-12-09T00:51:48.685Z,19.209999999999994
2018-12-09T00:55:10.885Z,19.28
2018-12-09T00:58:33.099Z,19.209999999999994
2018-12-09T01:01:55.265Z,19.209999999999994
2018-12-09T01:05:17.575Z,19.17
2018-12-09T01:08:42.105Z,19.200000000000003
2018-12-09T01:12:01.712Z,19.150000000000006
2018-12-09T01:15:23.924Z,19.17
2018-12-09T01:18:46.179Z,19.129999999999995
2018-12-09T01:22:08.310Z,19.150000000000006
2018-12-09T01:25:30.569Z,19.120000000000005
2018-12-09T01:28:52.695Z,19.150000000000006
2018-12-09T01:32:14.752Z,19.069999999999993
2018-12-09T01:35:36.966Z,19.099999999999994
2018-12-09T01:39:00.337Z,19.129999999999995
2018-12-09T01:42:21.365Z,19.069999999999993
2018-12-09T01:45:43.570Z,19.120000000000005
2018-12-09T01:49:05.641Z,19.03
2018-12-09T01:52:27.838Z,19.069999999999993
2018-12-09T01:55:50.068Z,19.03
2018-12-09T01:59:12.295Z,19.049999999999997
2018-12-09T02:02:34.407Z,19.060000000000002
2018-12-09T02:05:56.521Z,19.03
2018-12-09T02:09:18.752Z,19.060000000000002
2018-12-09T02:12:40.870Z,19.069999999999993
2018-12-09T02:16:05.133Z,19.049999999999997
2018-12-09T02:22:47.411Z,19.049999999999997
2018-12-09T02:26:09.626Z,18.989999999999995
2018-12-09T02:29:31.844Z,19.019999999999996
2018-12-09T02:32:53.977Z,19.03
2018-12-09T02:36:16.195Z,18.989999999999995
2018-12-09T02:39:38.310Z,19.03
2018-12-09T02:43:02.110Z,19
2018-12-09T02:46:22.627Z,19.019999999999996
2018-12-09T02:49:45.029Z,18.989999999999995
2018-12-09T02:53:07.021Z,18.989999999999995
2018-12-09T02:56:29.103Z,19.049999999999997
2018-12-09T02:59:51.432Z,19
2018-12-09T03:03:13.555Z,18.950000000000003
2018-12-09T03:06:35.721Z,19.019999999999996
2018-12-09T03:09:58.334Z,18.989999999999995
2018-12-09T03:13:20.067Z,18.950000000000003
2018-12-09T03:16:42.314Z,18.950000000000003
2018-12-09T03:20:04.331Z,18.92
2018-12-09T03:23:26.530Z,18.939999999999998
2018-12-09T03:26:48.772Z,18.950000000000003
2018-12-09T03:30:10.854Z,18.879999999999995
2018-12-09T03:33:33.163Z,18.909999999999997
2018-12-09T03:36:55.260Z,18.909999999999997
2018-12-09T03:40:17.374Z,18.92
2018-12-09T03:43:39.521Z,18.909999999999997
2018-12-09T03:47:01.832Z,18.939999999999998
2018-12-09T03:50:23.878Z,18.980000000000004
2018-12-09T03:53:46.133Z,18.92
2018-12-09T03:57:08.328Z,18.950000000000003
2018-12-09T04:00:30.504Z,18.900000000000006
2018-12-09T04:03:52.661Z,18.909999999999997
2018-12-09T04:07:14.841Z,18.879999999999995
2018-12-09T04:10:36.923Z,18.870000000000005
2018-12-09T04:13:59.140Z,18.879999999999995
2018-12-09T04:17:21.325Z,18.870000000000005
2018-12-09T04:20:43.567Z,18.92
2018-12-09T04:24:05.615Z,18.900000000000006
2018-12-09T04:27:27.880Z,18.900000000000006
2018-12-09T04:30:50.854Z,18.849999999999994
2018-12-09T04:34:12.250Z,18.900000000000006
2018-12-09T04:37:34.418Z,18.870000000000005
2018-12-09T04:40:56.589Z,18.849999999999994
2018-12-09T04:44:18.687Z,18.840000000000003
2018-12-09T04:47:41.049Z,18.840000000000003
2018-12-09T04:51:03.132Z,18.870000000000005
2018-12-09T04:54:25.219Z,18.819999999999993
2018-12-09T04:57:47.375Z,18.840000000000003
2018-12-09T05:01:09.642Z,18.810000000000002
2018-12-09T05:04:31.759Z,18.900000000000006
2018-12-09T05:07:53.982Z,18.879999999999995
2018-12-09T05:11:16.179Z,18.819999999999993
2018-12-09T05:14:38.441Z,18.849999999999994
2018-12-09T05:21:22.664Z,18.840000000000003
2018-12-09T05:24:44.862Z,18.840000000000003
2018-12-09T05:28:06.946Z,18.849999999999994
2018-12-09T05:31:29.234Z,18.849999999999994
2018-12-09T05:34:51.365Z,18.870000000000005
2018-12-09T05:38:13.465Z,18.810000000000002
2018-12-09T05:41:35.738Z,18.840000000000003
2018-12-09T05:44:58.742Z,18.870000000000005
2018-12-09T05:48:20.002Z,18.840000000000003
2018-12-09T05:51:42.289Z,18.799999999999997
2018-12-09T05:55:04.384Z,18.810000000000002
2018-12-09T05:58:26.518Z,18.840000000000003
2018-12-09T06:01:48.879Z,18.810000000000002
2018-12-09T06:05:10.879Z,18.78
2018-12-09T06:08:33.152Z,18.810000000000002
2018-12-09T06:11:55.231Z,18.78
2018-12-09T06:15:17.632Z,18.78
2018-12-09T06:18:39.809Z,18.799999999999997
2018-12-09T06:22:01.812Z,18.75
2018-12-09T06:25:23.923Z,18.75
2018-12-09T06:28:46.177Z,18.78
2018-12-09T06:32:08.370Z,18.760000000000005
2018-12-09T06:35:30.466Z,18.810000000000002
2018-12-09T06:38:52.712Z,18.810000000000002
2018-12-09T06:42:14.871Z,18.799999999999997
2018-12-09T06:45:37.107Z,18.78
2018-12-09T06:48:59.186Z,18.72
2018-12-09T06:52:21.385Z,18.72
2018-12-09T06:55:43.580Z,18.75
2018-12-09T06:59:05.809Z,18.700000000000003
2018-12-09T07:05:50.098Z,18.760000000000005
2018-12-09T07:09:12.318Z,18.689999999999998
2018-12-09T07:12:34.452Z,18.72
2018-12-09T07:15:56.593Z,18.72
2018-12-09T07:19:18.869Z,18.700000000000003
2018-12-09T07:22:41.000Z,18.760000000000005
2018-12-09T07:29:25.376Z,18.760000000000005
2018-12-09T07:32:47.443Z,18.730000000000004
2018-12-09T07:36:09.596Z,18.689999999999998
2018-12-09T07:39:31.925Z,18.72
2018-12-09T07:42:53.946Z,18.760000000000005
2018-12-09T07:49:38.392Z,18.760000000000005
2018-12-09T07:53:00.485Z,18.730000000000004
2018-12-09T07:56:22.774Z,18.75
2018-12-09T07:59:44.817Z,18.730000000000004
2018-12-09T08:03:06.997Z,18.700000000000003
2018-12-09T08:06:29.183Z,18.760000000000005
2018-12-09T08:09:51.491Z,18.760000000000005
2018-12-09T08:13:13.681Z,18.760000000000005
2018-12-09T08:16:35.701Z,18.78
2018-12-09T08:19:57.976Z,18.760000000000005
2018-12-09T08:23:20.157Z,18.75
2018-12-09T08:26:42.398Z,18.799999999999997
2018-12-09T08:30:04.516Z,18.799999999999997
2018-12-09T08:33:26.611Z,18.78
2018-12-09T08:36:48.838Z,18.760000000000005
2018-12-09T08:40:10.986Z,18.799999999999997
2018-12-09T08:43:33.170Z,18.840000000000003
2018-12-09T08:46:55.367Z,18.799999999999997
2018-12-09T08:50:17.518Z,18.840000000000003
2018-12-09T08:53:39.796Z,18.870000000000005
2018-12-09T08:57:01.901Z,18.819999999999993
2018-12-09T09:00:24.112Z,18.870000000000005
2018-12-09T09:03:46.210Z,18.840000000000003
2018-12-09T09:07:08.456Z,18.870000000000005
2018-12-09T09:10:30.552Z,18.810000000000002
2018-12-09T09:13:52.795Z,18.900000000000006
2018-12-09T09:17:15.007Z,18.879999999999995
2018-12-09T09:20:37.089Z,18.909999999999997
2018-12-09T09:27:21.413Z,18.840000000000003
2018-12-09T09:30:43.653Z,18.879999999999995
2018-12-09T09:34:05.716Z,18.909999999999997
2018-12-09T09:37:27.899Z,18.849999999999994
2018-12-09T09:40:50.109Z,18.870000000000005
2018-12-09T09:44:12.322Z,18.879999999999995
2018-12-09T09:47:34.417Z,18.879999999999995
2018-12-09T09:50:56.607Z,18.92
2018-12-09T09:54:18.838Z,18.909999999999997
2018-12-09T09:57:41.114Z,18.980000000000004
2018-12-09T10:01:03.248Z,18.909999999999997
2018-12-09T10:04:25.365Z,18.92
2018-12-09T10:11:09.664Z,18.989999999999995
2018-12-09T10:14:31.938Z,18.980000000000004
2018-12-09T10:17:54.115Z,18.92
2018-12-09T10:21:16.257Z,18.989999999999995
2018-12-09T10:24:38.445Z,19.060000000000002
2018-12-09T10:31:22.694Z,15.709999999999994
2018-12-09T10:34:45.418Z,15
2018-12-09T10:38:07.141Z,15.599999999999994
2018-12-09T10:41:29.246Z,16.769999999999996
2018-12-09T10:44:51.519Z,17.560000000000002
2018-12-09T10:48:13.569Z,17.980000000000004
2018-12-09T10:51:35.812Z,18.239999999999995
2018-12-09T10:54:58.016Z,18.510000000000005
2018-12-09T10:58:20.190Z,18.58
2018-12-09T11:01:42.490Z,18.75
2018-12-09T11:05:04.607Z,18.799999999999997
2018-12-09T11:08:26.781Z,18.92
2018-12-09T11:11:48.796Z,18.980000000000004
2018-12-09T11:15:11.190Z,19.120000000000005
2018-12-09T11:18:33.345Z,19.060000000000002
2018-12-09T11:21:55.389Z,19.099999999999994
2018-12-09T11:25:17.572Z,19.060000000000002
2018-12-09T11:28:39.894Z,19.120000000000005
2018-12-09T11:32:01.935Z,19.019999999999996
2018-12-09T11:35:24.018Z,19.060000000000002
2018-12-09T11:38:46.367Z,19.099999999999994
2018-12-09T11:42:08.445Z,19.069999999999993
2018-12-09T11:45:30.640Z,19
2018-12-09T11:48:52.781Z,19.090000000000003
2018-12-09T11:52:15.044Z,19.180000000000007
2018-12-09T11:55:37.068Z,19.209999999999994
2018-12-09T11:58:59.323Z,19.299999999999997
2018-12-09T12:02:21.556Z,19.310000000000002
2018-12-09T12:05:43.690Z,19.39
2018-12-09T12:09:05.779Z,19.400000000000006
2018-12-09T12:12:28.047Z,19.47
2018-12-09T12:15:50.150Z,19.5
2018-12-09T12:19:12.314Z,19.549999999999997
2018-12-09T12:22:38.084Z,19.549999999999997
2018-12-09T12:25:56.895Z,19.549999999999997
2018-12-09T12:29:18.974Z,19.549999999999997
2018-12-09T12:32:41.168Z,19.58
2018-12-09T12:36:03.289Z,19.680000000000007
2018-12-09T12:39:25.573Z,19.700000000000003
2018-12-09T12:42:47.586Z,19.72
2018-12-09T12:46:09.872Z,19.680000000000007
2018-12-09T12:49:31.891Z,19.680000000000007
2018-12-09T12:52:54.070Z,19.760000000000005
2018-12-09T12:56:16.369Z,19.760000000000005
2018-12-09T12:59:38.559Z,19.769999999999996
2018-12-09T13:03:00.693Z,19.810000000000002
2018-12-09T13:06:22.965Z,19.83
2018-12-09T13:09:45.014Z,19.840000000000003
2018-12-09T13:13:07.198Z,19.840000000000003
2018-12-09T13:16:29.322Z,19.909999999999997
2018-12-09T13:19:51.484Z,19.879999999999995
2018-12-09T13:23:13.797Z,19.870000000000005
2018-12-09T13:26:35.983Z,19.909999999999997
2018-12-09T13:29:58.185Z,19.83
2018-12-09T13:33:20.251Z,19.799999999999997
2018-12-09T13:36:42.412Z,19.72
2018-12-09T13:40:04.647Z,19.730000000000004
2018-12-09T13:43:26.985Z,19.72
2018-12-09T13:46:48.972Z,19.769999999999996
2018-12-09T13:50:11.191Z,19.730000000000004
2018-12-09T13:53:33.374Z,19.769999999999996
2018-12-09T13:56:55.556Z,19.83
2018-12-09T14:00:17.660Z,19.83
2018-12-09T14:03:39.807Z,19.86
2018-12-09T14:07:02.094Z,19.870000000000005
2018-12-09T14:10:24.228Z,19.879999999999995
2018-12-09T14:13:46.313Z,19.939999999999998
2018-12-09T14:17:08.537Z,19.909999999999997
2018-12-09T14:20:30.866Z,19.950000000000003
2018-12-09T14:23:52.876Z,19.939999999999998
2018-12-09T14:27:15.013Z,19.989999999999995
2018-12-09T14:30:37.216Z,19.909999999999997
2018-12-09T14:33:59.330Z,19.86
2018-12-09T14:40:43.718Z,19.799999999999997
2018-12-09T14:44:05.984Z,19.78
2018-12-09T14:47:28.202Z,19.769999999999996
2018-12-09T14:50:50.302Z,19.760000000000005
2018-12-09T14:54:12.360Z,19.72
2018-12-09T14:57:34.606Z,19.650000000000006
2018-12-09T15:00:56.763Z,19.620000000000005
2018-12-09T15:04:18.930Z,19.599999999999994
2018-12-09T15:11:05.192Z,19.549999999999997
2018-12-09T15:14:25.481Z,19.53
2018-12-09T15:17:47.627Z,19.5
2018-12-09T15:21:09.838Z,19.53
2018-12-09T15:24:31.948Z,19.459999999999994
2018-12-09T15:27:54.157Z,19.459999999999994
2018-12-09T15:31:16.332Z,19.42
2018-12-09T15:34:38.706Z,19.450000000000003
2018-12-09T15:38:00.631Z,19.42
2018-12-09T15:41:22.785Z,19.36
2018-12-09T15:44:45.040Z,19.400000000000006
2018-12-09T15:48:07.311Z,19.39
2018-12-09T15:51:29.410Z,19.319999999999993
2018-12-09T15:54:51.608Z,19.379999999999995
2018-12-09T15:58:14.156Z,19.310000000000002
2018-12-09T16:01:35.887Z,19.299999999999997
2018-12-09T16:04:58.120Z,19.36
2018-12-09T16:08:20.173Z,19.310000000000002
2018-12-09T16:15:04.582Z,19.319999999999993
2018-12-09T16:18:26.773Z,19.310000000000002
2018-12-09T16:21:48.946Z,19.299999999999997
2018-12-09T16:25:11.044Z,19.25
2018-12-09T16:28:33.249Z,19.349999999999994
2018-12-09T16:31:55.434Z,19.25
2018-12-09T16:35:17.730Z,19.299999999999997
2018-12-09T16:38:39.764Z,19.310000000000002
2018-12-09T16:42:02.024Z,19.269999999999996
2018-12-09T16:45:24.129Z,19.25
2018-12-09T16:48:46.422Z,19.28
2018-12-09T16:52:08.523Z,19.239999999999995
2018-12-09T16:55:30.660Z,19.25
2018-12-09T16:58:52.842Z,19.209999999999994
2018-12-09T17:02:15.197Z,19.269999999999996
2018-12-09T17:05:37.184Z,19.25
2018-12-09T17:08:59.356Z,19.209999999999994
2018-12-09T17:12:21.584Z,19.22
2018-12-09T17:15:43.646Z,19.22
2018-12-09T17:19:05.901Z,19.22
2018-12-09T17:22:28.194Z,19.209999999999994
2018-12-09T17:25:50.189Z,19.200000000000003
2018-12-09T17:29:12.364Z,19.209999999999994
2018-12-09T17:32:34.594Z,19.200000000000003
2018-12-09T17:35:56.810Z,19.239999999999995
2018-12-09T17:39:18.964Z,19.150000000000006
2018-12-09T17:42:41.136Z,19.209999999999994
2018-12-09T17:46:03.292Z,19.239999999999995
2018-12-09T17:49:25.552Z,19.22
2018-12-09T17:56:09.750Z,19.200000000000003
2018-12-09T17:59:32.053Z,19.17
2018-12-09T18:02:54.254Z,19.180000000000007
2018-12-09T18:06:16.355Z,19.180000000000007
2018-12-09T18:09:38.559Z,19.200000000000003
2018-12-09T18:13:00.807Z,19.180000000000007
2018-12-09T18:16:22.850Z,19.150000000000006
2018-12-09T18:19:45.044Z,19.150000000000006
2018-12-09T18:23:07.260Z,19.180000000000007
2018-12-09T18:26:29.457Z,19.180000000000007
2018-12-09T18:29:51.663Z,19.180000000000007
2018-12-09T18:33:13.858Z,19.17
2018-12-09T18:36:35.909Z,19.17
2018-12-09T18:39:58.394Z,19.120000000000005
2018-12-09T18:43:20.387Z,19.180000000000007
2018-12-09T18:46:45.177Z,19.22
2018-12-09T18:50:04.678Z,19.200000000000003
2018-12-09T18:53:26.840Z,19.180000000000007
2018-12-09T18:56:48.958Z,19.22
2018-12-09T19:00:11.191Z,19.209999999999994
2018-12-09T19:03:33.344Z,19.200000000000003
2018-12-09T19:06:55.430Z,19.17
2018-12-09T19:10:17.803Z,19.25
2018-12-09T19:13:39.797Z,19.180000000000007
2018-12-09T19:17:02.009Z,19.180000000000007
2018-12-09T19:20:24.198Z,19.22
2018-12-09T19:23:46.465Z,19.239999999999995
2018-12-09T19:27:08.468Z,19.22
2018-12-09T19:30:30.709Z,19.209999999999994
2018-12-09T19:33:53.001Z,19.209999999999994
2018-12-09T19:37:15.059Z,19.209999999999994
2018-12-09T19:40:37.207Z,19.239999999999995
2018-12-09T19:43:59.415Z,19.209999999999994
2018-12-09T19:47:21.575Z,19.180000000000007
2018-12-09T19:50:43.890Z,19.25
2018-12-09T19:57:28.108Z,19.269999999999996
2018-12-09T20:00:50.321Z,19.25
2018-12-09T20:04:12.480Z,19.269999999999996
2018-12-09T20:07:34.618Z,19.269999999999996
2018-12-09T20:10:57.316Z,19.209999999999994
2018-12-09T20:14:18.963Z,19.25
2018-12-09T20:17:41.228Z,19.28
2018-12-09T20:21:03.317Z,19.299999999999997
2018-12-09T20:24:25.554Z,19.269999999999996
2018-12-09T20:27:47.617Z,19.310000000000002
2018-12-09T20:31:09.908Z,19.310000000000002
2018-12-09T20:34:32.045Z,19.310000000000002
2018-12-09T20:37:54.107Z,19.269999999999996
2018-12-09T20:41:16.293Z,19.299999999999997
2018-12-09T20:44:38.621Z,19.310000000000002
2018-12-09T20:48:00.715Z,19.299999999999997
2018-12-09T20:51:23.008Z,19.349999999999994
2018-12-09T20:54:45.027Z,19.299999999999997
2018-12-09T20:58:09.041Z,19.349999999999994
2018-12-09T21:01:29.427Z,19.349999999999994
2018-12-09T21:04:51.717Z,19.379999999999995
2018-12-09T21:08:13.739Z,19.319999999999993
2018-12-09T21:11:35.926Z,19.319999999999993
2018-12-09T21:14:58.208Z,19.36
2018-12-09T21:18:20.336Z,19.379999999999995
2018-12-09T21:21:42.463Z,19.319999999999993
2018-12-09T21:25:04.716Z,19.269999999999996
2018-12-09T21:28:26.863Z,19.349999999999994
2018-12-09T21:31:49.006Z,19.39
2018-12-09T21:35:11.204Z,19.36
2018-12-09T21:38:33.337Z,19.349999999999994
2018-12-09T21:41:55.695Z,19.39
2018-12-09T21:48:39.908Z,19.310000000000002
2018-12-09T21:52:02.112Z,19.319999999999993
2018-12-09T21:55:24.217Z,19.42
2018-12-09T21:58:46.307Z,19.400000000000006
2018-12-09T22:09:13.068Z,19.269999999999996
2018-12-09T22:12:35.251Z,18.870000000000005
2018-12-09T22:15:57.350Z,19.099999999999994
2018-12-09T22:19:19.526Z,19.239999999999995
2018-12-09T22:22:41.698Z,19.28
2018-12-09T22:26:03.912Z,19.299999999999997
2018-12-09T22:29:26.262Z,19.310000000000002
2018-12-09T22:32:48.226Z,19.319999999999993
2018-12-09T22:36:10.496Z,19.299999999999997
2018-12-09T22:39:32.657Z,19.28
2018-12-09T22:42:54.820Z,19.28
2018-12-09T22:46:17.013Z,19.28
2018-12-09T22:49:39.271Z,19.269999999999996
2018-12-09T22:53:01.370Z,19.25
2018-12-09T22:56:23.538Z,19.239999999999995
2018-12-09T22:59:45.712Z,19.22
2018-12-09T23:03:07.873Z,19.22
2018-12-09T23:06:30.061Z,19.22
2018-12-09T23:09:52.558Z,19.209999999999994
2018-12-09T23:13:14.329Z,19.209999999999994
2018-12-09T23:16:36.497Z,19.180000000000007
2018-12-09T23:19:58.848Z,19.180000000000007
2018-12-09T23:23:20.900Z,19.17
2018-12-09T23:26:43.150Z,19.180000000000007
2018-12-09T23:30:05.304Z,19.17
2018-12-09T23:33:27.405Z,19.150000000000006
2018-12-09T23:36:49.585Z,19.129999999999995
2018-12-09T23:40:11.830Z,19.120000000000005
2018-12-09T23:43:33.902Z,19.129999999999995
2018-12-09T23:46:56.169Z,19.099999999999994
2018-12-09T23:50:18.309Z,19.090000000000003
2018-12-09T23:53:40.609Z,19.090000000000003
2018-12-09T23:57:02.723Z,19.060000000000002
